Impacts TAF Board INFO
FOR SITUATIONAL AWARENESS. NOT TO BE USED FOR FLIGHT PLANNING PURPOSES.
IDs:

KDFW - Dallas-Ft Worth Intl, TX, US

Issued at 0520 UTC 16 Jan 2018
Updated at 0723 UTC 16 Jan 2018
Potential Impact None Slight Moderate High
Time0653Z 16/08Z 16/09Z 16/10Z 16/11Z 16/12Z 16/13Z 16/14Z 16/15Z 16/16Z 16/17Z 16/18Z 16/19Z 16/20Z>>
Type OBS PRVL PRVL PRVL PRVL PRVL PRVL PRVL PRVL PRVL PRVL PRVL PRVL PRVL
VIS 9 >6 >6 >6 >6 >6 >6 >6 >6 >6 >6 >6 >6 >6
CIG 75 60 60 90 90 90 90 90 90 -- -- -- -- --
Cover OVC OVC OVC OVC OVC OVC OVC OVC OVC SCT SCT SCT SCT SCT
FltCat VFR VFR VFR VFR VFR VFR VFR VFR VFR VFR VFR VFR VFR VFR
WX -SN -SN -SN -- -- -- -- -- -- -- -- -- -- --
WDir 360 360 360 360 360 360 360 360 360 360 360 360 360 360
WSpd 23 20 20 17 17 17 17 17 17 16 16 16 16 16
WGst -- 30 30 27 27 27 27 27 27 -- -- -- -- --

Raw TAF
KDFW 160520Z 1606/1712 36020G30KT P6SM -SN SCT035 OVC060
  TEMPO 1606/1608 6SM -SN BR BKN040
  FM161000 36017G27KT P6SM SCT050 OVC090
  FM161600 36016KT P6SM SCT100 SCT150 SCT300
  FM170100 01008KT P6SM SCT300


Raw METAR
KDFW 160653Z 36023KT 9SM -SN FEW032 SCT055 OVC075 M02/M11 A3063 RMK AO2 PK WND 36027/0623 SNE09B33 SLP373 P0000 T10221106 $
KDFW 160553Z 01016G26KT 8SM -SN FEW032 OVC065 M01/M09 A3062 RMK AO2 PK WND 01030/0513 SLP368 SNE09B20PLE09 P0000 60000 T10111089 10061 21011 401501011 51040 $
KDFW 160509Z 36020G26KT 10SM OVC060 M01/M10 A3061 RMK AO2 PK WND 36027/0504 SNE09PLE09 P0000 T10061100 $
KDFW 160453Z 01017G24KT 7SM -SNPL OVC060 00/M08 A3059 RMK AO2 PK WND 36030/0407 PRESRR SLP359 PLE08B52SNB24 P0000 T00001083 $

METAR Board
Radar Display
Forecast Discussion

FOR SITUATIONAL AWARENESS. NOT TO BE USED FOR FLIGHT PLANNING PURPOSES.